Bluffton, Arkansas
Current Conditions -  °F | °C
As of 10:22 AM on Sunday 23 Nov 2014 (Local Time) from KMWT Reporting Station
Overcast Overcast  
Wind Chill: 60°   Ceiling: 1000
Heat Index: 60°   Visibility: 9mi
Dew Point: 58°   Wind: 0mph
Humidity: 93%   Direction: NA
Pressure: 29.5"   Gusts: NA
Location:  34.91°N, 93.6°W
Report Text: KMWT 231622Z AUTO 00000KT 9SM BKN010 BKN013 OVC019 16/14 A2950 RMK AO2 RAE13 P0001 T01560144
Loading
Personal Weather Stations






























Interactive Weather Map New forecast layout! Learn more

10-Day Weather Forecast

Advertisements
Track Severe Weather on mobile